sensor_id;sensor_type;location;lat;lon;timestamp;temperature;humidity
48579;DHT22;34357;51.948;6.132;2022-12-26T00:01:53;8.90;96.30
48579;DHT22;34357;51.948;6.132;2022-12-26T00:04:19;8.90;96.30
48579;DHT22;34357;51.948;6.132;2022-12-26T00:06:46;8.90;96.30
48579;DHT22;34357;51.948;6.132;2022-12-26T00:09:11;9.00;96.30
48579;DHT22;34357;51.948;6.132;2022-12-26T00:11:37;8.90;96.30
48579;DHT22;34357;51.948;6.132;2022-12-26T00:14:07;9.00;96.30
48579;DHT22;34357;51.948;6.132;2022-12-26T00:16:34;9.00;96.20
48579;DHT22;34357;51.948;6.132;2022-12-26T00:19:01;9.00;96.30
48579;DHT22;34357;51.948;6.132;2022-12-26T00:21:28;9.00;96.20
48579;DHT22;34357;51.948;6.132;2022-12-26T00:23:55;9.00;96.20
48579;DHT22;34357;51.948;6.132;2022-12-26T00:26:23;9.00;96.30
48579;DHT22;34357;51.948;6.132;2022-12-26T00:28:49;9.10;96.20
48579;DHT22;34357;51.948;6.132;2022-12-26T00:31:20;9.10;96.20
48579;DHT22;34357;51.948;6.132;2022-12-26T00:33:47;9.00;96.20
48579;DHT22;34357;51.948;6.132;2022-12-26T00:36:18;9.00;96.20
48579;DHT22;34357;51.948;6.132;2022-12-26T00:38:45;9.10;96.20
48579;DHT22;34357;51.948;6.132;2022-12-26T00:41:12;9.10;96.10
48579;DHT22;34357;51.948;6.132;2022-12-26T00:43:38;9.10;96.10
48579;DHT22;34357;51.948;6.132;2022-12-26T00:46:05;9.20;96.10
48579;DHT22;34357;51.948;6.132;2022-12-26T00:48:31;9.20;96.10
48579;DHT22;34357;51.948;6.132;2022-12-26T00:50:57;9.20;96.10
48579;DHT22;34357;51.948;6.132;2022-12-26T00:53:24;9.20;96.10
48579;DHT22;34357;51.948;6.132;2022-12-26T00:55:50;9.20;96.10
48579;DHT22;34357;51.948;6.132;2022-12-26T00:58:17;9.20;96.10
48579;DHT22;34357;51.948;6.132;2022-12-26T01:00:43;9.20;96.10
48579;DHT22;34357;51.948;6.132;2022-12-26T01:03:09;9.30;96.10
48579;DHT22;34357;51.948;6.132;2022-12-26T01:05:43;9.30;96.10
48579;DHT22;34357;51.948;6.132;2022-12-26T01:08:10;9.30;96.00
48579;DHT22;34357;51.948;6.132;2022-12-26T01:10:36;9.30;96.00
48579;DHT22;34357;51.948;6.132;2022-12-26T01:13:04;9.40;96.00
48579;DHT22;34357;51.948;6.132;2022-12-26T01:15:30;9.40;95.90
48579;DHT22;34357;51.948;6.132;2022-12-26T01:17:57;9.40;96.00
48579;DHT22;34357;51.948;6.132;2022-12-26T01:20:23;9.40;96.00
48579;DHT22;34357;51.948;6.132;2022-12-26T01:22:49;9.40;95.90
48579;DHT22;34357;51.948;6.132;2022-12-26T01:25:14;9.40;96.00
48579;DHT22;34357;51.948;6.132;2022-12-26T01:27:40;9.40;95.90
48579;DHT22;34357;51.948;6.132;2022-12-26T01:30:06;9.40;95.90
48579;DHT22;34357;51.948;6.132;2022-12-26T01:32:32;9.40;95.90
48579;DHT22;34357;51.948;6.132;2022-12-26T01:34:58;9.40;95.80
48579;DHT22;34357;51.948;6.132;2022-12-26T01:37:23;9.40;95.80
48579;DHT22;34357;51.948;6.132;2022-12-26T01:39:51;9.40;95.80
48579;DHT22;34357;51.948;6.132;2022-12-26T01:42:20;9.40;95.70
48579;DHT22;34357;51.948;6.132;2022-12-26T01:45:06;9.40;95.70
48579;DHT22;34357;51.948;6.132;2022-12-26T01:47:42;9.30;95.70
48579;DHT22;34357;51.948;6.132;2022-12-26T01:50:24;9.30;95.70
48579;DHT22;34357;51.948;6.132;2022-12-26T01:52:52;9.30;95.70
48579;DHT22;34357;51.948;6.132;2022-12-26T01:55:20;9.30;95.70
48579;DHT22;34357;51.948;6.132;2022-12-26T01:57:52;9.20;95.70
48579;DHT22;34357;51.948;6.132;2022-12-26T02:00:19;9.30;95.60
48579;DHT22;34357;51.948;6.132;2022-12-26T02:02:45;9.20;95.60
48579;DHT22;34357;51.948;6.132;2022-12-26T02:05:32;9.20;95.60
48579;DHT22;34357;51.948;6.132;2022-12-26T02:08:12;9.30;95.70
48579;DHT22;34357;51.948;6.132;2022-12-26T02:11:04;9.30;95.60
48579;DHT22;34357;51.948;6.132;2022-12-26T02:13:35;9.30;95.60
48579;DHT22;34357;51.948;6.132;2022-12-26T02:16:04;9.30;95.60
48579;DHT22;34357;51.948;6.132;2022-12-26T02:18:31;9.20;95.60
48579;DHT22;34357;51.948;6.132;2022-12-26T02:35:32;9.30;95.50
48579;DHT22;34357;51.948;6.132;2022-12-26T02:41:24;9.30;95.50
48579;DHT22;34357;51.948;6.132;2022-12-26T02:44:25;9.30;95.50
48579;DHT22;34357;51.948;6.132;2022-12-26T02:47:22;9.30;95.50
48579;DHT22;34357;51.948;6.132;2022-12-26T02:56:13;9.20;95.30
48579;DHT22;34357;51.948;6.132;2022-12-26T02:59:29;9.20;95.40
48579;DHT22;34357;51.948;6.132;2022-12-26T03:02:25;9.20;95.30
48579;DHT22;34357;51.948;6.132;2022-12-26T03:05:21;9.20;95.30
48579;DHT22;34357;51.948;6.132;2022-12-26T03:08:13;9.20;95.30
48579;DHT22;34357;51.948;6.132;2022-12-26T03:11:01;9.20;95.30
48579;DHT22;34357;51.948;6.132;2022-12-26T03:13:48;9.20;95.30
48579;DHT22;34357;51.948;6.132;2022-12-26T03:16:16;9.20;95.20
48579;DHT22;34357;51.948;6.132;2022-12-26T03:19:05;9.20;95.20
48579;DHT22;34357;51.948;6.132;2022-12-26T03:21:39;9.00;95.10
48579;DHT22;34357;51.948;6.132;2022-12-26T03:24:09;9.00;95.10
48579;DHT22;34357;51.948;6.132;2022-12-26T03:26:38;8.90;95.10
48579;DHT22;34357;51.948;6.132;2022-12-26T03:29:15;9.00;95.20
48579;DHT22;34357;51.948;6.132;2022-12-26T03:32:01;9.00;95.10
48579;DHT22;34357;51.948;6.132;2022-12-26T03:34:27;9.00;95.10
48579;DHT22;34357;51.948;6.132;2022-12-26T03:37:33;9.00;95.00
48579;DHT22;34357;51.948;6.132;2022-12-26T03:49:26;8.90;94.80
48579;DHT22;34357;51.948;6.132;2022-12-26T03:52:34;8.90;94.80
48579;DHT22;34357;51.948;6.132;2022-12-26T03:55:38;8.80;94.80
48579;DHT22;34357;51.948;6.132;2022-12-26T03:58:33;8.80;94.90
48579;DHT22;34357;51.948;6.132;2022-12-26T04:01:20;8.90;94.90
48579;DHT22;34357;51.948;6.132;2022-12-26T04:04:09;8.90;94.90
48579;DHT22;34357;51.948;6.132;2022-12-26T04:07:14;8.90;94.90
48579;DHT22;34357;51.948;6.132;2022-12-26T04:10:12;8.90;94.80
48579;DHT22;34357;51.948;6.132;2022-12-26T04:12:58;9.00;94.80
48579;DHT22;34357;51.948;6.132;2022-12-26T04:15:59;9.00;94.80
48579;DHT22;34357;51.948;6.132;2022-12-26T04:18:52;9.10;94.70
48579;DHT22;34357;51.948;6.132;2022-12-26T04:22:07;9.10;94.70
48579;DHT22;34357;51.948;6.132;2022-12-26T04:25:02;9.10;94.70
48579;DHT22;34357;51.948;6.132;2022-12-26T04:27:48;9.10;94.60
48579;DHT22;34357;51.948;6.132;2022-12-26T04:30:34;9.10;94.50
48579;DHT22;34357;51.948;6.132;2022-12-26T04:33:30;9.20;94.50
48579;DHT22;34357;51.948;6.132;2022-12-26T04:36:36;9.20;94.50
48579;DHT22;34357;51.948;6.132;2022-12-26T04:39:24;9.20;94.40
48579;DHT22;34357;51.948;6.132;2022-12-26T04:42:11;9.20;94.40
48579;DHT22;34357;51.948;6.132;2022-12-26T04:44:56;9.20;94.40
48579;DHT22;34357;51.948;6.132;2022-12-26T04:47:24;9.20;94.40
48579;DHT22;34357;51.948;6.132;2022-12-26T04:49:50;9.20;94.40
48579;DHT22;34357;51.948;6.132;2022-12-26T04:52:34;9.30;94.40
48579;DHT22;34357;51.948;6.132;2022-12-26T04:55:19;9.20;94.30
48579;DHT22;34357;51.948;6.132;2022-12-26T04:57:45;9.20;94.30
48579;DHT22;34357;51.948;6.132;2022-12-26T05:00:11;9.20;94.30
48579;DHT22;34357;51.948;6.132;2022-12-26T05:02:37;9.10;94.30
48579;DHT22;34357;51.948;6.132;2022-12-26T05:05:21;9.20;94.20
48579;DHT22;34357;51.948;6.132;2022-12-26T05:08:13;9.10;94.00
48579;DHT22;34357;51.948;6.132;2022-12-26T05:11:00;9.10;94.10
48579;DHT22;34357;51.948;6.132;2022-12-26T05:13:25;9.10;94.10
48579;DHT22;34357;51.948;6.132;2022-12-26T05:15:51;9.10;94.00
48579;DHT22;34357;51.948;6.132;2022-12-26T05:18:35;9.00;94.00
48579;DHT22;34357;51.948;6.132;2022-12-26T05:21:19;9.10;94.10
48579;DHT22;34357;51.948;6.132;2022-12-26T05:24:04;9.00;94.10
48579;DHT22;34357;51.948;6.132;2022-12-26T05:26:48;8.90;94.00
48579;DHT22;34357;51.948;6.132;2022-12-26T05:29:32;8.90;94.10
48579;DHT22;34357;51.948;6.132;2022-12-26T05:31:58;8.90;94.10
48579;DHT22;34357;51.948;6.132;2022-12-26T05:34:23;8.90;94.00
48579;DHT22;34357;51.948;6.132;2022-12-26T05:36:52;8.90;94.00
48579;DHT22;34357;51.948;6.132;2022-12-26T05:39:18;8.80;94.10
48579;DHT22;34357;51.948;6.132;2022-12-26T05:41:44;8.80;94.10
48579;DHT22;34357;51.948;6.132;2022-12-26T05:44:10;8.80;94.20
48579;DHT22;34357;51.948;6.132;2022-12-26T05:46:36;8.90;94.20
48579;DHT22;34357;51.948;6.132;2022-12-26T05:49:03;8.80;94.20
48579;DHT22;34357;51.948;6.132;2022-12-26T05:51:31;8.70;94.10
48579;DHT22;34357;51.948;6.132;2022-12-26T05:53:57;8.70;94.20
48579;DHT22;34357;51.948;6.132;2022-12-26T05:56:23;8.70;94.20
48579;DHT22;34357;51.948;6.132;2022-12-26T05:58:56;8.80;94.20
48579;DHT22;34357;51.948;6.132;2022-12-26T06:01:24;8.80;93.90
48579;DHT22;34357;51.948;6.132;2022-12-26T06:03:52;8.80;93.90
48579;DHT22;34357;51.948;6.132;2022-12-26T06:06:19;8.80;93.90
48579;DHT22;34357;51.948;6.132;2022-12-26T06:08:49;8.80;93.90
48579;DHT22;34357;51.948;6.132;2022-12-26T06:11:16;8.70;93.80
48579;DHT22;34357;51.948;6.132;2022-12-26T06:13:42;8.70;93.80
48579;DHT22;34357;51.948;6.132;2022-12-26T06:16:14;8.70;93.80
48579;DHT22;34357;51.948;6.132;2022-12-26T06:18:40;8.60;93.80
48579;DHT22;34357;51.948;6.132;2022-12-26T06:21:13;8.70;93.90
48579;DHT22;34357;51.948;6.132;2022-12-26T06:23:39;8.70;93.80
48579;DHT22;34357;51.948;6.132;2022-12-26T06:26:05;8.60;93.80
48579;DHT22;34357;51.948;6.132;2022-12-26T06:28:32;8.60;93.90
48579;DHT22;34357;51.948;6.132;2022-12-26T06:31:08;8.50;93.90
48579;DHT22;34357;51.948;6.132;2022-12-26T06:33:34;8.50;93.90
48579;DHT22;34357;51.948;6.132;2022-12-26T06:38:29;8.60;93.90
48579;DHT22;34357;51.948;6.132;2022-12-26T06:40:55;8.60;93.90
48579;DHT22;34357;51.948;6.132;2022-12-26T06:43:20;8.60;93.90
48579;DHT22;34357;51.948;6.132;2022-12-26T06:45:54;8.50;93.90
48579;DHT22;34357;51.948;6.132;2022-12-26T06:48:20;8.50;93.90
48579;DHT22;34357;51.948;6.132;2022-12-26T06:50:46;8.50;94.00
48579;DHT22;34357;51.948;6.132;2022-12-26T06:53:11;8.50;94.00
48579;DHT22;34357;51.948;6.132;2022-12-26T06:55:37;8.50;94.00
48579;DHT22;34357;51.948;6.132;2022-12-26T06:58:03;8.50;94.00
48579;DHT22;34357;51.948;6.132;2022-12-26T07:00:28;8.40;94.00
48579;DHT22;34357;51.948;6.132;2022-12-26T07:02:54;8.50;94.10
48579;DHT22;34357;51.948;6.132;2022-12-26T07:05:20;8.50;94.20
48579;DHT22;34357;51.948;6.132;2022-12-26T07:07:52;8.60;94.30
48579;DHT22;34357;51.948;6.132;2022-12-26T07:10:18;8.70;94.10
48579;DHT22;34357;51.948;6.132;2022-12-26T07:12:45;8.70;94.10
48579;DHT22;34357;51.948;6.132;2022-12-26T07:15:11;8.70;94.00
48579;DHT22;34357;51.948;6.132;2022-12-26T07:17:36;8.70;94.10
48579;DHT22;34357;51.948;6.132;2022-12-26T07:20:06;8.70;93.90
48579;DHT22;34357;51.948;6.132;2022-12-26T07:22:32;8.70;93.90
48579;DHT22;34357;51.948;6.132;2022-12-26T07:24:58;8.70;93.90
48579;DHT22;34357;51.948;6.132;2022-12-26T07:27:23;8.60;93.90
48579;DHT22;34357;51.948;6.132;2022-12-26T07:29:49;8.60;93.80
48579;DHT22;34357;51.948;6.132;2022-12-26T07:32:15;8.60;93.90
48579;DHT22;34357;51.948;6.132;2022-12-26T07:34:42;8.70;93.80
48579;DHT22;34357;51.948;6.132;2022-12-26T07:37:07;8.70;93.70
48579;DHT22;34357;51.948;6.132;2022-12-26T07:39:33;8.70;93.70
48579;DHT22;34357;51.948;6.132;2022-12-26T07:42:00;8.80;93.60
48579;DHT22;34357;51.948;6.132;2022-12-26T07:44:30;8.70;93.60
48579;DHT22;34357;51.948;6.132;2022-12-26T07:46:57;8.70;93.50
48579;DHT22;34357;51.948;6.132;2022-12-26T07:49:23;8.70;93.40
48579;DHT22;34357;51.948;6.132;2022-12-26T07:51:49;8.80;93.30
48579;DHT22;34357;51.948;6.132;2022-12-26T07:54:15;8.80;93.30
48579;DHT22;34357;51.948;6.132;2022-12-26T07:56:41;8.80;93.20
48579;DHT22;34357;51.948;6.132;2022-12-26T07:59:15;8.70;93.20
48579;DHT22;34357;51.948;6.132;2022-12-26T08:01:41;8.70;93.20
48579;DHT22;34357;51.948;6.132;2022-12-26T08:04:07;8.70;93.20
48579;DHT22;34357;51.948;6.132;2022-12-26T08:06:33;8.70;93.20
48579;DHT22;34357;51.948;6.132;2022-12-26T08:08:58;8.70;93.10
48579;DHT22;34357;51.948;6.132;2022-12-26T08:11:24;8.60;93.10
48579;DHT22;34357;51.948;6.132;2022-12-26T08:13:51;8.70;93.10
48579;DHT22;34357;51.948;6.132;2022-12-26T08:16:17;8.70;93.10
48579;DHT22;34357;51.948;6.132;2022-12-26T08:18:43;8.60;93.10
48579;DHT22;34357;51.948;6.132;2022-12-26T08:21:09;8.70;93.00
48579;DHT22;34357;51.948;6.132;2022-12-26T08:23:35;8.70;93.00
48579;DHT22;34357;51.948;6.132;2022-12-26T08:26:11;8.70;93.10
48579;DHT22;34357;51.948;6.132;2022-12-26T08:28:40;8.70;92.90
48579;DHT22;34357;51.948;6.132;2022-12-26T08:31:07;8.80;93.00
48579;DHT22;34357;51.948;6.132;2022-12-26T08:33:34;8.80;92.90
48579;DHT22;34357;51.948;6.132;2022-12-26T08:36:04;8.80;92.90
48579;DHT22;34357;51.948;6.132;2022-12-26T08:38:30;8.90;92.70
48579;DHT22;34357;51.948;6.132;2022-12-26T08:40:56;8.80;92.70
48579;DHT22;34357;51.948;6.132;2022-12-26T08:43:23;8.90;92.60
48579;DHT22;34357;51.948;6.132;2022-12-26T08:46:09;8.90;92.50
48579;DHT22;34357;51.948;6.132;2022-12-26T08:48:36;8.90;92.50
48579;DHT22;34357;51.948;6.132;2022-12-26T08:51:28;9.00;92.40
48579;DHT22;34357;51.948;6.132;2022-12-26T08:53:53;9.10;92.40
48579;DHT22;34357;51.948;6.132;2022-12-26T08:56:24;9.20;92.10
48579;DHT22;34357;51.948;6.132;2022-12-26T08:58:50;9.10;92.30
48579;DHT22;34357;51.948;6.132;2022-12-26T09:01:20;9.10;92.30
48579;DHT22;34357;51.948;6.132;2022-12-26T09:03:46;9.20;92.30
48579;DHT22;34357;51.948;6.132;2022-12-26T09:06:13;9.20;92.30
48579;DHT22;34357;51.948;6.132;2022-12-26T09:08:40;9.40;92.10
48579;DHT22;34357;51.948;6.132;2022-12-26T09:11:15;9.40;91.90
48579;DHT22;34357;51.948;6.132;2022-12-26T09:13:41;9.40;91.60
48579;DHT22;34357;51.948;6.132;2022-12-26T09:16:18;9.40;91.60
48579;DHT22;34357;51.948;6.132;2022-12-26T09:18:45;9.50;91.30
48579;DHT22;34357;51.948;6.132;2022-12-26T09:21:14;9.60;91.00
48579;DHT22;34357;51.948;6.132;2022-12-26T09:23:41;9.70;90.60
48579;DHT22;34357;51.948;6.132;2022-12-26T09:26:09;9.70;90.60
48579;DHT22;34357;51.948;6.132;2022-12-26T09:28:37;9.80;90.30
48579;DHT22;34357;51.948;6.132;2022-12-26T09:31:11;9.90;89.90
48579;DHT22;34357;51.948;6.132;2022-12-26T09:33:37;9.90;89.70
48579;DHT22;34357;51.948;6.132;2022-12-26T09:36:09;9.90;89.30
48579;DHT22;34357;51.948;6.132;2022-12-26T09:38:35;10.00;89.30
48579;DHT22;34357;51.948;6.132;2022-12-26T09:46:33;10.10;89.00
48579;DHT22;34357;51.948;6.132;2022-12-26T09:49:17;10.10;89.00
48579;DHT22;34357;51.948;6.132;2022-12-26T09:51:48;10.10;89.00
48579;DHT22;34357;51.948;6.132;2022-12-26T09:54:32;10.20;88.90
48579;DHT22;34357;51.948;6.132;2022-12-26T09:57:00;10.20;88.90
48579;DHT22;34357;51.948;6.132;2022-12-26T09:59:26;10.20;88.70
48579;DHT22;34357;51.948;6.132;2022-12-26T10:01:54;10.20;88.70
48579;DHT22;34357;51.948;6.132;2022-12-26T10:04:27;10.20;89.00
48579;DHT22;34357;51.948;6.132;2022-12-26T10:15:23;10.10;89.70
48579;DHT22;34357;51.948;6.132;2022-12-26T10:23:34;9.90;90.20
48579;DHT22;34357;51.948;6.132;2022-12-26T10:31:26;9.80;91.50
48579;DHT22;34357;51.948;6.132;2022-12-26T10:36:46;9.60;92.70
48579;DHT22;34357;51.948;6.132;2022-12-26T10:42:31;9.10;92.60
48579;DHT22;34357;51.948;6.132;2022-12-26T10:44:58;8.90;92.90
48579;DHT22;34357;51.948;6.132;2022-12-26T10:47:28;8.90;93.20
48579;DHT22;34357;51.948;6.132;2022-12-26T10:49:55;8.90;93.30
48579;DHT22;34357;51.948;6.132;2022-12-26T10:52:30;8.90;93.30
48579;DHT22;34357;51.948;6.132;2022-12-26T10:54:58;9.00;93.30
48579;DHT22;34357;51.948;6.132;2022-12-26T10:57:28;9.00;93.30
48579;DHT22;34357;51.948;6.132;2022-12-26T10:59:55;9.00;93.30
48579;DHT22;34357;51.948;6.132;2022-12-26T11:02:25;9.10;93.40
48579;DHT22;34357;51.948;6.132;2022-12-26T11:05:09;9.10;93.30
48579;DHT22;34357;51.948;6.132;2022-12-26T11:07:44;9.10;93.20
48579;DHT22;34357;51.948;6.132;2022-12-26T11:10:20;9.10;93.00
48579;DHT22;34357;51.948;6.132;2022-12-26T11:13:05;9.10;93.20
48579;DHT22;34357;51.948;6.132;2022-12-26T11:15:36;9.10;93.20
48579;DHT22;34357;51.948;6.132;2022-12-26T11:18:27;9.00;93.10
48579;DHT22;34357;51.948;6.132;2022-12-26T11:21:18;9.10;93.10
48579;DHT22;34357;51.948;6.132;2022-12-26T11:23:46;8.80;91.80
48579;DHT22;34357;51.948;6.132;2022-12-26T11:26:22;8.70;91.30
48579;DHT22;34357;51.948;6.132;2022-12-26T11:29:04;8.50;90.60
48579;DHT22;34357;51.948;6.132;2022-12-26T11:31:30;8.40;90.30
48579;DHT22;34357;51.948;6.132;2022-12-26T11:33:58;8.40;90.20
48579;DHT22;34357;51.948;6.132;2022-12-26T11:36:27;8.40;90.00
48579;DHT22;34357;51.948;6.132;2022-12-26T11:38:55;8.30;89.50
48579;DHT22;34357;51.948;6.132;2022-12-26T11:51:47;7.90;88.40
48579;DHT22;34357;51.948;6.132;2022-12-26T11:56:48;7.90;88.30
48579;DHT22;34357;51.948;6.132;2022-12-26T11:59:19;7.90;88.60
48579;DHT22;34357;51.948;6.132;2022-12-26T12:01:45;7.90;88.60
48579;DHT22;34357;51.948;6.132;2022-12-26T12:04:11;7.90;88.40
48579;DHT22;34357;51.948;6.132;2022-12-26T12:11:52;7.90;87.50
48579;DHT22;34357;51.948;6.132;2022-12-26T12:22:25;7.80;86.30
48579;DHT22;34357;51.948;6.132;2022-12-26T12:30:28;7.70;85.70
48579;DHT22;34357;51.948;6.132;2022-12-26T12:33:19;7.80;86.10
48579;DHT22;34357;51.948;6.132;2022-12-26T12:36:00;7.70;84.50
48579;DHT22;34357;51.948;6.132;2022-12-26T12:44:21;7.80;86.10
48579;DHT22;34357;51.948;6.132;2022-12-26T12:52:37;8.00;84.40
48579;DHT22;34357;51.948;6.132;2022-12-26T12:57:26;8.00;84.00
48579;DHT22;34357;51.948;6.132;2022-12-26T13:02:28;7.90;84.30
48579;DHT22;34357;51.948;6.132;2022-12-26T13:05:03;7.80;83.90
48579;DHT22;34357;51.948;6.132;2022-12-26T13:07:35;7.80;83.80
48579;DHT22;34357;51.948;6.132;2022-12-26T13:10:14;7.70;83.80
48579;DHT22;34357;51.948;6.132;2022-12-26T13:12:42;7.60;84.10
48579;DHT22;34357;51.948;6.132;2022-12-26T13:15:26;7.60;84.20
48579;DHT22;34357;51.948;6.132;2022-12-26T13:18:01;7.60;84.30
48579;DHT22;34357;51.948;6.132;2022-12-26T13:20:29;7.60;84.30
48579;DHT22;34357;51.948;6.132;2022-12-26T13:23:04;7.60;84.80
48579;DHT22;34357;51.948;6.132;2022-12-26T13:26:19;7.60;84.70
48579;DHT22;34357;51.948;6.132;2022-12-26T13:29:04;7.60;84.60
48579;DHT22;34357;51.948;6.132;2022-12-26T13:31:36;7.60;83.90
48579;DHT22;34357;51.948;6.132;2022-12-26T13:34:02;7.50;84.50
48579;DHT22;34357;51.948;6.132;2022-12-26T13:36:35;7.50;84.80
48579;DHT22;34357;51.948;6.132;2022-12-26T13:41:28;7.40;84.30
48579;DHT22;34357;51.948;6.132;2022-12-26T13:49:35;7.30;85.40
48579;DHT22;34357;51.948;6.132;2022-12-26T14:00:02;7.00;84.50
48579;DHT22;34357;51.948;6.132;2022-12-26T14:05:53;7.00;84.00
48579;DHT22;34357;51.948;6.132;2022-12-26T14:08:39;7.00;83.70
48579;DHT22;34357;51.948;6.132;2022-12-26T14:16:40;6.80;82.20
48579;DHT22;34357;51.948;6.132;2022-12-26T14:21:53;6.80;80.90
48579;DHT22;34357;51.948;6.132;2022-12-26T14:33:15;6.60;79.30
48579;DHT22;34357;51.948;6.132;2022-12-26T14:38:46;6.50;79.60
48579;DHT22;34357;51.948;6.132;2022-12-26T14:41:17;6.50;80.20
48579;DHT22;34357;51.948;6.132;2022-12-26T14:47:04;6.40;80.40
48579;DHT22;34357;51.948;6.132;2022-12-26T14:54:51;6.30;81.30
48579;DHT22;34357;51.948;6.132;2022-12-26T14:57:44;6.10;82.10
48579;DHT22;34357;51.948;6.132;2022-12-26T15:00:25;6.10;82.50
48579;DHT22;34357;51.948;6.132;2022-12-26T15:05:41;6.00;82.30
48579;DHT22;34357;51.948;6.132;2022-12-26T15:10:43;6.00;83.00
48579;DHT22;34357;51.948;6.132;2022-12-26T15:24:04;6.20;84.00
48579;DHT22;34357;51.948;6.132;2022-12-26T15:32:19;6.10;83.80
48579;DHT22;34357;51.948;6.132;2022-12-26T15:35:20;6.10;83.70
48579;DHT22;34357;51.948;6.132;2022-12-26T15:41:00;6.10;82.90
48579;DHT22;34357;51.948;6.132;2022-12-26T15:46:29;6.00;82.00
48579;DHT22;34357;51.948;6.132;2022-12-26T15:54:42;5.90;81.60
48579;DHT22;34357;51.948;6.132;2022-12-26T16:02:43;5.80;81.60
48579;DHT22;34357;51.948;6.132;2022-12-26T16:05:32;5.70;81.50
48579;DHT22;34357;51.948;6.132;2022-12-26T16:10:36;5.70;82.30
48579;DHT22;34357;51.948;6.132;2022-12-26T16:15:56;5.60;83.10
48579;DHT22;34357;51.948;6.132;2022-12-26T16:18:30;5.60;83.80
48579;DHT22;34357;51.948;6.132;2022-12-26T16:21:03;5.50;84.20
48579;DHT22;34357;51.948;6.132;2022-12-26T16:23:50;5.50;84.80
48579;DHT22;34357;51.948;6.132;2022-12-26T16:26:18;5.40;84.90
48579;DHT22;34357;51.948;6.132;2022-12-26T16:28:46;5.40;84.70
48579;DHT22;34357;51.948;6.132;2022-12-26T16:31:23;5.30;84.90
48579;DHT22;34357;51.948;6.132;2022-12-26T16:33:51;5.20;84.90
48579;DHT22;34357;51.948;6.132;2022-12-26T16:36:22;5.10;85.30
48579;DHT22;34357;51.948;6.132;2022-12-26T16:38:48;5.10;85.50
48579;DHT22;34357;51.948;6.132;2022-12-26T16:43:49;5.00;84.90
48579;DHT22;34357;51.948;6.132;2022-12-26T16:46:16;5.00;85.10
48579;DHT22;34357;51.948;6.132;2022-12-26T16:48:53;5.10;85.00
48579;DHT22;34357;51.948;6.132;2022-12-26T16:51:46;5.00;85.00
48579;DHT22;34357;51.948;6.132;2022-12-26T16:56:50;4.90;84.80
48579;DHT22;34357;51.948;6.132;2022-12-26T16:59:19;4.80;84.60
48579;DHT22;34357;51.948;6.132;2022-12-26T17:01:54;4.80;84.50
48579;DHT22;34357;51.948;6.132;2022-12-26T17:04:23;4.70;84.40
48579;DHT22;34357;51.948;6.132;2022-12-26T17:09:29;4.60;84.20
48579;DHT22;34357;51.948;6.132;2022-12-26T17:12:01;4.60;84.50
48579;DHT22;34357;51.948;6.132;2022-12-26T17:14:32;4.50;84.70
48579;DHT22;34357;51.948;6.132;2022-12-26T17:17:01;4.40;84.40
48579;DHT22;34357;51.948;6.132;2022-12-26T17:19:32;4.50;84.40
48579;DHT22;34357;51.948;6.132;2022-12-26T17:24:40;4.40;83.90
48579;DHT22;34357;51.948;6.132;2022-12-26T17:27:27;4.40;83.70
48579;DHT22;34357;51.948;6.132;2022-12-26T17:29:56;4.40;83.90
48579;DHT22;34357;51.948;6.132;2022-12-26T17:32:41;4.40;83.90
48579;DHT22;34357;51.948;6.132;2022-12-26T17:35:17;4.40;84.00
48579;DHT22;34357;51.948;6.132;2022-12-26T17:37:44;4.30;83.90
48579;DHT22;34357;51.948;6.132;2022-12-26T17:45:14;4.30;84.50
48579;DHT22;34357;51.948;6.132;2022-12-26T17:47:39;4.20;84.20
48579;DHT22;34357;51.948;6.132;2022-12-26T17:50:05;4.20;84.00
48579;DHT22;34357;51.948;6.132;2022-12-26T17:52:31;4.30;84.00
48579;DHT22;34357;51.948;6.132;2022-12-26T17:54:57;4.30;84.00
48579;DHT22;34357;51.948;6.132;2022-12-26T17:57:27;4.30;84.20
48579;DHT22;34357;51.948;6.132;2022-12-26T17:59:56;4.20;84.10
48579;DHT22;34357;51.948;6.132;2022-12-26T18:02:23;4.20;84.20
48579;DHT22;34357;51.948;6.132;2022-12-26T18:04:49;4.10;84.50
48579;DHT22;34357;51.948;6.132;2022-12-26T18:07:20;4.10;84.50
48579;DHT22;34357;51.948;6.132;2022-12-26T18:09:47;4.10;84.30
48579;DHT22;34357;51.948;6.132;2022-12-26T18:12:14;4.10;84.10
48579;DHT22;34357;51.948;6.132;2022-12-26T18:14:40;4.00;84.30
48579;DHT22;34357;51.948;6.132;2022-12-26T18:17:06;4.00;84.20
48579;DHT22;34357;51.948;6.132;2022-12-26T18:19:32;4.00;84.40
48579;DHT22;34357;51.948;6.132;2022-12-26T18:21:59;3.90;84.20
48579;DHT22;34357;51.948;6.132;2022-12-26T18:24:25;3.90;84.50
48579;DHT22;34357;51.948;6.132;2022-12-26T18:26:51;4.00;84.50
48579;DHT22;34357;51.948;6.132;2022-12-26T18:29:17;4.00;84.40
48579;DHT22;34357;51.948;6.132;2022-12-26T18:31:43;4.00;84.70
48579;DHT22;34357;51.948;6.132;2022-12-26T18:34:08;3.90;84.90
48579;DHT22;34357;51.948;6.132;2022-12-26T18:36:36;3.90;85.10
48579;DHT22;34357;51.948;6.132;2022-12-26T18:39:03;3.90;85.10
48579;DHT22;34357;51.948;6.132;2022-12-26T18:41:29;3.90;85.10
48579;DHT22;34357;51.948;6.132;2022-12-26T18:43:55;3.90;85.20
48579;DHT22;34357;51.948;6.132;2022-12-26T18:46:26;3.90;85.40
48579;DHT22;34357;51.948;6.132;2022-12-26T18:48:53;3.90;85.50
48579;DHT22;34357;51.948;6.132;2022-12-26T18:51:22;3.90;85.80
48579;DHT22;34357;51.948;6.132;2022-12-26T18:53:48;3.90;85.60
48579;DHT22;34357;51.948;6.132;2022-12-26T18:56:17;3.90;85.90
48579;DHT22;34357;51.948;6.132;2022-12-26T18:58:47;3.90;85.90
48579;DHT22;34357;51.948;6.132;2022-12-26T19:01:16;3.90;85.80
48579;DHT22;34357;51.948;6.132;2022-12-26T19:03:42;3.90;85.80
48579;DHT22;34357;51.948;6.132;2022-12-26T19:06:13;3.90;85.90
48579;DHT22;34357;51.948;6.132;2022-12-26T19:08:40;4.00;86.10
48579;DHT22;34357;51.948;6.132;2022-12-26T19:11:06;4.00;86.00
48579;DHT22;34357;51.948;6.132;2022-12-26T19:13:31;4.10;85.70
48579;DHT22;34357;51.948;6.132;2022-12-26T19:15:59;4.10;85.80
48579;DHT22;34357;51.948;6.132;2022-12-26T19:18:24;4.20;85.70
48579;DHT22;34357;51.948;6.132;2022-12-26T19:20:50;4.30;85.70
48579;DHT22;34357;51.948;6.132;2022-12-26T19:23:16;4.40;85.00
48579;DHT22;34357;51.948;6.132;2022-12-26T19:25:41;4.30;85.30
48579;DHT22;34357;51.948;6.132;2022-12-26T19:28:07;4.40;85.20
48579;DHT22;34357;51.948;6.132;2022-12-26T19:30:33;4.40;85.00
48579;DHT22;34357;51.948;6.132;2022-12-26T19:32:58;4.40;84.90
48579;DHT22;34357;51.948;6.132;2022-12-26T19:35:24;4.40;85.10
48579;DHT22;34357;51.948;6.132;2022-12-26T19:37:50;4.40;84.80
48579;DHT22;34357;51.948;6.132;2022-12-26T19:40:15;4.40;84.60
48579;DHT22;34357;51.948;6.132;2022-12-26T19:42:41;4.50;84.40
48579;DHT22;34357;51.948;6.132;2022-12-26T19:45:08;4.50;84.20
48579;DHT22;34357;51.948;6.132;2022-12-26T19:47:35;4.40;84.20
48579;DHT22;34357;51.948;6.132;2022-12-26T19:50:01;4.40;83.80
48579;DHT22;34357;51.948;6.132;2022-12-26T19:52:28;4.30;83.80
48579;DHT22;34357;51.948;6.132;2022-12-26T19:54:54;4.30;83.60
48579;DHT22;34357;51.948;6.132;2022-12-26T19:57:19;4.30;83.80
48579;DHT22;34357;51.948;6.132;2022-12-26T19:59:48;4.40;82.90